createdAt,value
2018-06-17T00:01:45.200Z,5.40
2018-06-17T00:04:15.426Z,5.70
2018-06-17T00:06:45.784Z,5.80
2018-06-17T00:09:16.272Z,4.60
2018-06-17T00:11:46.829Z,4.97
2018-06-17T00:14:17.109Z,5.10
2018-06-17T00:16:47.398Z,4.50
2018-06-17T00:19:17.828Z,4.73
2018-06-17T00:21:48.182Z,5.30
2018-06-17T00:24:18.542Z,4.70
2018-06-17T00:26:48.947Z,4.50
2018-06-17T00:29:19.249Z,4.50
2018-06-17T00:31:49.797Z,4.10
2018-06-17T00:34:20.109Z,4.20
2018-06-17T00:36:50.540Z,4.50
2018-06-17T00:39:20.862Z,4.30
2018-06-17T00:41:51.360Z,3.90
2018-06-17T00:44:21.837Z,4.03
2018-06-17T00:46:52.205Z,3.50
2018-06-17T00:49:22.555Z,3.63
2018-06-17T00:51:53.069Z,3.80
2018-06-17T00:54:23.584Z,3.80
2018-06-17T00:58:13.714Z,4.03
2018-06-17T01:00:44.033Z,3.57
2018-06-17T01:03:14.612Z,4.17
2018-06-17T01:05:45.154Z,3.60
2018-06-17T01:08:15.635Z,3.83
2018-06-17T01:10:45.936Z,3.77
2018-06-17T01:13:16.425Z,3.53
2018-06-17T01:15:46.751Z,3.27
2018-06-17T01:18:17.087Z,3.53
2018-06-17T01:20:47.378Z,3.67
2018-06-17T01:23:17.684Z,3.90
2018-06-17T01:25:48.041Z,3.20
2018-06-17T01:28:18.336Z,4.13
2018-06-17T01:30:48.631Z,3.57
2018-06-17T01:33:19.040Z,3.90
2018-06-17T01:35:49.375Z,4.07
2018-06-17T01:38:19.688Z,3.77
2018-06-17T01:40:50.007Z,3.30
2018-06-17T01:43:20.543Z,3.30
2018-06-17T01:45:50.866Z,3.60
2018-06-17T01:48:21.270Z,3.10
2018-06-17T01:50:51.621Z,3.93
2018-06-17T01:53:22.132Z,4.00
2018-06-17T01:55:52.504Z,3.30
2018-06-17T01:58:22.765Z,3.87
2018-06-17T02:00:53.191Z,3.83
2018-06-17T02:03:28.697Z,3.60
2018-06-17T02:06:04.037Z,3.50
2018-06-17T02:08:39.759Z,4.00
2018-06-17T02:11:15.435Z,3.53
2018-06-17T02:13:45.758Z,3.17
2018-06-17T02:16:16.231Z,3.50
2018-06-17T02:18:46.391Z,3.53
2018-06-17T02:21:16.639Z,3.30
2018-06-17T02:23:46.895Z,3.80
2018-06-17T02:26:16.982Z,3.20
2018-06-17T02:28:47.414Z,3.40
2018-06-17T02:31:17.484Z,3.40
2018-06-17T02:33:47.768Z,3.10
2018-06-17T02:36:18.047Z,3.20
2018-06-17T02:38:48.320Z,3.20
2018-06-17T02:41:18.621Z,2.93
2018-06-17T02:43:49.063Z,3.13
2018-06-17T02:46:24.632Z,3.30
2018-06-17T02:50:03.062Z,3.00
2018-06-17T02:52:38.687Z,2.83
2018-06-17T02:55:09.142Z,2.80
2018-06-17T02:57:39.609Z,2.90
2018-06-17T03:00:10.021Z,2.40
2018-06-17T03:02:40.312Z,2.80
2018-06-17T03:05:10.632Z,2.90
2018-06-17T03:07:41.063Z,2.67
2018-06-17T03:10:11.380Z,2.83
2018-06-17T03:12:41.682Z,2.97
2018-06-17T03:15:12.084Z,2.40
2018-06-17T03:17:42.412Z,2.73
2018-06-17T03:20:12.545Z,3.43
2018-06-17T03:22:42.753Z,2.20
2018-06-17T03:25:18.277Z,2.77
2018-06-17T03:27:53.912Z,2.37
2018-06-17T03:30:29.361Z,2.60
2018-06-17T03:33:04.524Z,3.23
2018-06-17T03:35:40.045Z,2.27
2018-06-17T03:38:10.394Z,2.47
2018-06-17T03:40:40.933Z,2.33
2018-06-17T03:43:11.480Z,2.57
2018-06-17T03:45:41.852Z,2.60
2018-06-17T03:48:12.123Z,2.37
2018-06-17T03:50:42.403Z,2.37
2018-06-17T03:53:12.745Z,2.10
2018-06-17T03:55:43.084Z,2.57
2018-06-17T03:58:13.773Z,2.30
2018-06-17T04:00:43.858Z,2.53
2018-06-17T04:03:14.215Z,2.90
2018-06-17T04:05:44.425Z,3.17
2018-06-17T04:08:14.877Z,2.27
2018-06-17T04:10:45.343Z,2.30
2018-06-17T04:13:15.635Z,2.80
2018-06-17T04:15:45.911Z,2.50
2018-06-17T04:18:16.361Z,2.37
2018-06-17T04:20:46.667Z,2.73
2018-06-17T04:23:16.772Z,2.63
2018-06-17T04:25:47.069Z,2.40
2018-06-17T04:28:17.348Z,2.70
2018-06-17T04:30:47.645Z,2.37
2018-06-17T04:33:17.904Z,2.00
2018-06-17T04:35:48.234Z,2.40
2018-06-17T04:38:18.549Z,2.60
2018-06-17T04:40:48.863Z,2.70
2018-06-17T04:43:19.194Z,2.27
2018-06-17T04:45:49.425Z,2.57
2018-06-17T04:48:19.839Z,2.43
2018-06-17T04:50:50.245Z,2.70
2018-06-17T04:53:20.826Z,2.50
2018-06-17T04:55:51.170Z,2.40
2018-06-17T04:58:21.519Z,2.70
2018-06-17T05:00:51.632Z,2.40
2018-06-17T05:03:21.811Z,2.43
2018-06-17T05:05:52.191Z,2.23
2018-06-17T05:08:22.570Z,2.43
2018-06-17T05:10:53.029Z,2.60
2018-06-17T05:13:23.094Z,2.57
2018-06-17T05:15:53.283Z,2.58
2018-06-17T05:18:23.604Z,2.77
2018-06-17T05:20:53.951Z,2.80
2018-06-17T05:23:24.215Z,3.00
2018-06-17T05:25:54.564Z,2.60
2018-06-17T05:28:24.706Z,2.50
2018-06-17T05:30:55.005Z,2.17
2018-06-17T05:33:25.431Z,2.20
2018-06-17T05:35:56.460Z,2.97
2018-06-17T05:38:27.954Z,2.60
2018-06-17T05:40:58.281Z,2.13
2018-06-17T05:43:28.579Z,2.43
2018-06-17T05:45:59.512Z,2.53
2018-06-17T05:48:29.769Z,2.50
2018-06-17T05:51:00.222Z,2.40
2018-06-17T05:53:30.522Z,2.60
2018-06-17T05:56:00.845Z,2.37
2018-06-17T05:58:31.180Z,2.63
2018-06-17T06:01:01.603Z,2.33
2018-06-17T06:03:32.003Z,2.27
2018-06-17T06:06:02.376Z,2.00
2018-06-17T06:08:32.678Z,2.30
2018-06-17T06:11:03.031Z,2.67
2018-06-17T06:13:33.390Z,2.67
2018-06-17T06:16:03.730Z,2.80
2018-06-17T06:18:34.280Z,2.33
2018-06-17T06:21:04.740Z,1.80
2018-06-17T06:23:35.072Z,2.67
2018-06-17T06:26:05.477Z,2.22
2018-06-17T06:28:36.295Z,3.00
2018-06-17T06:31:06.296Z,2.65
2018-06-17T06:33:36.198Z,2.60
2018-06-17T06:36:07.037Z,2.15
2018-06-17T06:38:37.434Z,2.30
2018-06-17T06:41:07.736Z,2.40
2018-06-17T06:43:38.096Z,3.58
2018-06-17T06:46:08.471Z,2.47
2018-06-17T06:48:38.835Z,3.22
2018-06-17T06:51:09.217Z,2.52
2018-06-17T06:53:39.668Z,2.50
2018-06-17T06:56:09.979Z,2.27
2018-06-17T06:58:40.387Z,2.40
2018-06-17T07:01:10.775Z,2.40
2018-06-17T07:03:58.058Z,2.50
2018-06-17T07:06:45.129Z,2.77
2018-06-17T07:09:31.288Z,3.10
2018-06-17T07:12:01.643Z,3.30
2018-06-17T07:14:32.245Z,2.60
2018-06-17T07:17:19.448Z,2.85
2018-06-17T07:19:49.933Z,2.37
2018-06-17T07:22:20.354Z,2.75
2018-06-17T07:24:51.246Z,2.33
2018-06-17T07:27:38.508Z,2.90
2018-06-17T07:30:08.919Z,2.87
2018-06-17T07:32:39.980Z,2.47
2018-06-17T07:35:10.316Z,2.23
2018-06-17T07:37:40.733Z,2.83
2018-06-17T07:40:26.878Z,2.45
2018-06-17T07:42:57.303Z,2.42
2018-06-17T07:45:28.130Z,3.47
2018-06-17T07:47:58.407Z,2.45
2018-06-17T07:50:45.779Z,2.65
2018-06-17T07:53:19.986Z,2.50
2018-06-17T07:55:50.313Z,2.47
2018-06-17T07:58:20.657Z,2.52
2018-06-17T08:00:51.064Z,1.82
2018-06-17T08:03:21.498Z,1.95
2018-06-17T08:05:51.825Z,2.52
2018-06-17T08:08:22.230Z,2.33
2018-06-17T08:10:52.810Z,2.00
2018-06-17T08:13:23.081Z,2.60
2018-06-17T08:15:53.371Z,1.90
2018-06-17T08:18:23.704Z,1.90
2018-06-17T08:20:54.024Z,2.77
2018-06-17T08:23:24.393Z,2.13
2018-06-17T08:25:54.763Z,2.03
2018-06-17T08:28:25.140Z,2.13
2018-06-17T08:30:55.581Z,2.15
2018-06-17T08:33:25.941Z,2.00
2018-06-17T08:35:56.724Z,1.87
2018-06-17T08:38:27.972Z,2.60
2018-06-17T08:40:58.250Z,2.40
2018-06-17T08:43:28.625Z,2.47
2018-06-17T08:45:58.997Z,2.30
2018-06-17T08:48:29.371Z,2.10
2018-06-17T08:50:59.804Z,2.43
2018-06-17T08:53:30.163Z,2.50
2018-06-17T08:56:00.519Z,2.10
2018-06-17T08:58:30.959Z,2.50
2018-06-17T09:01:01.307Z,2.17
2018-06-17T09:03:31.620Z,2.07
2018-06-17T09:06:02.049Z,2.53
2018-06-17T09:08:32.363Z,1.83
2018-06-17T09:11:02.782Z,2.17
2018-06-17T09:13:33.129Z,2.33
2018-06-17T09:16:03.109Z,2.20
2018-06-17T09:18:33.521Z,2.17
2018-06-17T09:21:03.907Z,2.43
2018-06-17T09:23:34.311Z,2.20
2018-06-17T09:26:04.736Z,2.27
2018-06-17T09:28:36.112Z,2.37
2018-06-17T09:31:06.607Z,2.40
2018-06-17T09:33:36.986Z,2.20
2018-06-17T09:36:07.424Z,2.53
2018-06-17T09:38:38.791Z,2.33
2018-06-17T09:41:09.356Z,2.10
2018-06-17T09:43:39.865Z,2.37
2018-06-17T09:46:10.231Z,2.47
2018-06-17T09:48:40.722Z,2.20
2018-06-17T09:51:11.032Z,2.60
2018-06-17T09:53:41.391Z,2.47
2018-06-17T09:56:12.618Z,2.80
2018-06-17T09:58:42.928Z,2.65
2018-06-17T10:01:13.479Z,2.47
2018-06-17T10:03:44.037Z,2.10
2018-06-17T10:06:14.529Z,2.40
2018-06-17T10:08:45.048Z,2.80
2018-06-17T10:11:15.629Z,2.77
2018-06-17T10:13:46.540Z,3.00
2018-06-17T10:16:17.206Z,3.10
2018-06-17T10:18:47.518Z,2.80
2018-06-17T10:21:17.820Z,2.70
2018-06-17T10:23:48.378Z,2.43
2018-06-17T10:26:18.669Z,2.43
2018-06-17T10:28:49.080Z,2.60
2018-06-17T10:31:19.666Z,3.00
2018-06-17T10:33:49.803Z,2.90
2018-06-17T10:36:20.218Z,2.40
2018-06-17T10:37:58.555Z,2.80
2018-06-17T10:38:44.945Z,2.77
2018-06-17T10:39:20.398Z,2.70
2018-06-17T10:39:55.825Z,2.60
2018-06-17T10:42:24.172Z,3.00
2018-06-17T10:44:29.662Z,2.63
2018-06-17T10:46:35.048Z,3.40
2018-06-17T10:48:40.481Z,2.37
2018-06-17T10:50:45.860Z,3.60
2018-06-17T10:52:51.247Z,2.47
2018-06-17T10:54:56.543Z,2.80
2018-06-17T10:57:01.975Z,3.00
2018-06-17T10:59:07.544Z,3.00
2018-06-17T11:01:12.844Z,2.50
2018-06-17T11:03:18.307Z,3.30
2018-06-17T11:05:23.746Z,2.93
2018-06-17T11:07:29.248Z,2.60
2018-06-17T11:09:34.600Z,2.70
2018-06-17T11:11:40.001Z,2.50
2018-06-17T11:13:45.449Z,2.50
2018-06-17T11:15:51.046Z,2.73
2018-06-17T11:17:56.503Z,2.70
2018-06-17T11:20:02.413Z,2.17
2018-06-17T11:22:08.077Z,2.73
2018-06-17T11:24:13.503Z,2.90
2018-06-17T11:26:19.717Z,2.80
2018-06-17T11:28:25.972Z,2.50
2018-06-17T11:30:31.026Z,2.23
2018-06-17T11:32:36.277Z,2.75
2018-06-17T11:34:41.664Z,2.55
2018-06-17T11:36:46.671Z,3.20
2018-06-17T11:38:52.310Z,2.77
2018-06-17T11:40:58.154Z,3.47
2018-06-17T11:43:03.512Z,3.00
2018-06-17T11:45:08.946Z,2.30
2018-06-17T11:47:14.417Z,2.60
2018-06-17T11:49:19.846Z,2.87
2018-06-17T11:51:25.931Z,2.40
2018-06-17T11:53:31.401Z,2.60
2018-06-17T11:55:36.799Z,2.52
2018-06-17T11:57:42.155Z,3.00
2018-06-17T11:59:47.584Z,2.60
2018-06-17T12:01:52.968Z,3.03
2018-06-17T12:03:58.377Z,2.60
2018-06-17T12:06:03.878Z,2.90
2018-06-17T12:08:10.983Z,2.60
2018-06-17T12:10:16.408Z,2.50
2018-06-17T12:12:22.608Z,2.33
2018-06-17T12:14:29.472Z,2.33
2018-06-17T12:16:34.877Z,2.40
2018-06-17T12:18:40.483Z,2.50
2018-06-17T12:20:45.910Z,2.70
2018-06-17T12:22:51.283Z,2.70
2018-06-17T12:24:57.161Z,2.90
2018-06-17T12:27:02.568Z,3.50
2018-06-17T12:29:08.536Z,2.63
2018-06-17T12:31:13.898Z,3.20
2018-06-17T12:33:19.259Z,2.83
2018-06-17T12:35:26.160Z,2.60
2018-06-17T12:37:31.577Z,2.60
2018-06-17T12:39:37.881Z,2.98
2018-06-17T12:41:43.233Z,3.20
2018-06-17T12:43:48.718Z,2.77
2018-06-17T12:45:54.300Z,2.73
2018-06-17T12:47:59.705Z,2.67
2018-06-17T12:50:05.247Z,2.77
2018-06-17T12:52:11.688Z,2.70
2018-06-17T12:54:17.514Z,2.80
2018-06-17T12:56:22.884Z,2.63
2018-06-17T12:58:29.406Z,2.77
2018-06-17T13:00:35.035Z,2.80
2018-06-17T13:02:40.541Z,2.47
2018-06-17T13:04:46.071Z,2.30
2018-06-17T13:06:52.387Z,2.90
2018-06-17T13:08:57.832Z,2.47
2018-06-17T13:11:03.570Z,2.53
2018-06-17T13:13:08.955Z,2.23
2018-06-17T13:15:14.374Z,3.00
2018-06-17T13:17:19.919Z,2.47
2018-06-17T13:19:25.354Z,2.83
2018-06-17T13:21:30.781Z,2.77
2018-06-17T13:23:36.211Z,3.22
2018-06-17T13:25:41.878Z,3.30
2018-06-17T13:27:47.411Z,2.85
2018-06-17T13:29:52.916Z,3.23
2018-06-17T13:31:58.286Z,3.20
2018-06-17T13:34:04.814Z,2.67
2018-06-17T13:36:11.297Z,2.57
2018-06-17T13:38:16.850Z,2.80
2018-06-17T13:40:22.896Z,2.40
2018-06-17T13:42:30.062Z,2.40
2018-06-17T13:44:36.048Z,2.60
2018-06-17T13:46:42.265Z,2.70
2018-06-17T13:48:49.483Z,3.10
2018-06-17T13:50:54.865Z,2.50
2018-06-17T13:53:00.321Z,2.83
2018-06-17T13:55:05.694Z,2.53
2018-06-17T13:57:12.098Z,2.47
2018-06-17T13:59:17.592Z,2.67
2018-06-17T14:01:22.928Z,2.50
2018-06-17T14:03:30.181Z,2.67
2018-06-17T14:05:35.773Z,2.40
2018-06-17T14:07:41.248Z,2.25
2018-06-17T14:09:46.624Z,2.62
2018-06-17T14:11:51.906Z,2.30
2018-06-17T14:13:57.269Z,2.50
2018-06-17T14:16:02.755Z,2.20
2018-06-17T14:18:08.168Z,3.10
2018-06-17T14:20:13.513Z,2.30
2018-06-17T14:22:18.891Z,2.50
2018-06-17T14:24:24.220Z,2.70
2018-06-17T14:26:30.725Z,2.60
2018-06-17T14:28:36.256Z,2.85
2018-06-17T14:30:41.615Z,2.20
2018-06-17T14:32:47.193Z,2.72
2018-06-17T14:34:52.543Z,3.17
2018-06-17T14:36:58.040Z,2.53
2018-06-17T14:39:03.439Z,2.20
2018-06-17T14:41:14.480Z,2.30
2018-06-17T14:43:25.060Z,1.83
2018-06-17T14:45:35.713Z,2.40
2018-06-17T14:47:46.285Z,2.30
2018-06-17T14:49:56.724Z,2.30
2018-06-17T14:52:07.391Z,2.30
2018-06-17T14:54:12.770Z,1.80
2018-06-17T14:56:18.174Z,2.63
2018-06-17T14:58:23.624Z,2.65
2018-06-17T15:00:29.431Z,2.20
2018-06-17T15:02:34.721Z,2.30
2018-06-17T15:04:40.052Z,2.20
2018-06-17T15:06:45.382Z,2.30
2018-06-17T15:08:50.712Z,2.47
2018-06-17T15:10:56.057Z,2.00
2018-06-17T15:13:01.476Z,2.40
2018-06-17T15:15:07.010Z,2.33
2018-06-17T15:17:12.320Z,2.13
2018-06-17T15:19:17.729Z,2.20
2018-06-17T15:21:23.145Z,1.90
2018-06-17T15:23:29.600Z,2.05
2018-06-17T15:25:34.919Z,2.47
2018-06-17T15:27:40.355Z,2.83
2018-06-17T15:29:45.755Z,2.10
2018-06-17T15:31:56.158Z,2.67
2018-06-17T15:34:06.636Z,2.00
2018-06-17T15:36:17.230Z,2.00
2018-06-17T15:38:27.760Z,2.20
2018-06-17T15:40:38.370Z,2.63
2018-06-17T15:42:43.478Z,2.00
2018-06-17T15:44:48.747Z,2.40
2018-06-17T15:46:54.111Z,2.20
2018-06-17T15:48:59.496Z,2.40
2018-06-17T15:51:06.167Z,2.53
2018-06-17T15:53:11.531Z,2.23
2018-06-17T15:55:17.849Z,2.00
2018-06-17T15:57:23.244Z,2.30
2018-06-17T15:59:29.736Z,1.95
2018-06-17T16:01:35.077Z,2.05
2018-06-17T16:03:41.491Z,2.30
2018-06-17T16:05:46.864Z,1.80
2018-06-17T16:07:52.888Z,2.23
2018-06-17T16:09:58.264Z,2.20
2018-06-17T16:12:08.900Z,2.33
2018-06-17T16:14:19.331Z,2.23
2018-06-17T16:16:29.843Z,2.17
2018-06-17T16:18:40.352Z,2.17
2018-06-17T16:20:50.880Z,1.95
2018-06-17T16:22:56.297Z,2.37
2018-06-17T16:25:01.704Z,1.80
2018-06-17T16:27:07.096Z,2.00
2018-06-17T16:29:12.480Z,1.90
2018-06-17T16:31:17.780Z,1.93
2018-06-17T16:33:23.142Z,2.20
2018-06-17T16:35:29.791Z,2.20
2018-06-17T16:37:34.825Z,2.55
2018-06-17T16:39:40.056Z,1.90
2018-06-17T16:41:45.398Z,2.37
2018-06-17T16:43:50.394Z,2.40
2018-06-17T16:45:55.698Z,2.50
2018-06-17T16:48:01.077Z,1.90
2018-06-17T16:50:06.490Z,2.20
2018-06-17T16:52:16.796Z,2.20
2018-06-17T16:54:27.249Z,2.10
2018-06-17T16:56:37.798Z,2.13
2018-06-17T16:58:48.318Z,1.80
2018-06-17T17:00:53.762Z,2.40
2018-06-17T17:02:59.121Z,2.13
2018-06-17T17:05:04.610Z,2.40
2018-06-17T17:07:09.969Z,2.03
2018-06-17T17:09:15.381Z,2.50
2018-06-17T17:11:20.813Z,2.47
2018-06-17T17:13:26.246Z,3.20
2018-06-17T17:15:32.499Z,2.27
2018-06-17T17:17:37.946Z,1.90
2018-06-17T17:19:42.957Z,2.50
2018-06-17T17:21:49.262Z,2.53
2018-06-17T17:23:54.610Z,2.50
2018-06-17T17:26:00.620Z,2.30
2018-06-17T17:28:06.081Z,2.53
2018-06-17T17:30:11.520Z,1.67
2018-06-17T17:32:22.167Z,1.97
2018-06-17T17:34:32.627Z,2.00
2018-06-17T17:36:43.060Z,2.40
2018-06-17T17:41:01.858Z,1.87
2018-06-17T17:43:09.252Z,2.10
2018-06-17T17:45:17.814Z,2.60
2018-06-17T17:47:25.714Z,2.10
2018-06-17T17:49:31.096Z,2.30
2018-06-17T17:51:36.432Z,2.30
2018-06-17T17:53:41.822Z,2.60
2018-06-17T17:55:47.191Z,2.13
2018-06-17T17:57:52.476Z,2.23
2018-06-17T17:59:57.818Z,2.67
2018-06-17T18:02:03.171Z,1.90
2018-06-17T18:04:08.559Z,2.23
2018-06-17T18:06:13.988Z,2.50
2018-06-17T18:08:19.467Z,2.40
2018-06-17T18:10:24.831Z,2.08
2018-06-17T18:12:30.234Z,2.53
2018-06-17T18:14:36.746Z,2.30
2018-06-17T18:16:44.055Z,2.20
2018-06-17T18:18:49.496Z,2.00
2018-06-17T18:20:55.902Z,2.60
2018-06-17T18:23:01.257Z,2.63
2018-06-17T18:25:12.163Z,2.77
2018-06-17T18:27:22.785Z,2.00
2018-06-17T18:29:33.297Z,2.33
2018-06-17T18:31:43.927Z,2.50
2018-06-17T18:33:54.489Z,2.40
2018-06-17T18:36:04.751Z,2.30
2018-06-17T18:38:10.049Z,2.13
2018-06-17T18:40:16.364Z,2.80
2018-06-17T18:42:21.849Z,2.67
2018-06-17T18:44:27.850Z,2.77
2018-06-17T18:46:33.196Z,2.17
2018-06-17T18:48:38.679Z,2.33
2018-06-17T18:50:44.095Z,2.03
2018-06-17T18:52:49.576Z,2.20
2018-06-17T18:54:55.074Z,2.03
2018-06-17T18:57:00.552Z,2.30
2018-06-17T18:59:06.228Z,2.30
2018-06-17T19:01:11.677Z,2.00
2018-06-17T19:03:17.100Z,2.02
2018-06-17T19:05:22.589Z,2.12
2018-06-17T19:07:28.055Z,2.10
2018-06-17T19:09:38.655Z,2.47
2018-06-17T19:11:49.208Z,2.00
2018-06-17T19:16:01.906Z,1.87
2018-06-17T19:18:10.357Z,1.80
2018-06-17T19:20:15.785Z,1.92
2018-06-17T19:22:21.255Z,2.47
2018-06-17T19:24:26.659Z,2.20
2018-06-17T19:26:32.125Z,2.43
2018-06-17T19:28:37.564Z,2.30
2018-06-17T19:30:43.009Z,1.90
2018-06-17T19:32:48.439Z,2.00
2018-06-17T19:34:53.856Z,2.00
2018-06-17T19:36:59.242Z,2.20
2018-06-17T19:39:06.781Z,2.00
2018-06-17T19:41:12.218Z,2.43
2018-06-17T19:43:17.647Z,2.08
2018-06-17T19:45:28.105Z,2.20
2018-06-17T19:47:33.457Z,2.10
2018-06-17T19:49:43.856Z,2.20
2018-06-17T19:51:54.346Z,2.13
2018-06-17T19:54:05.723Z,2.20
2018-06-17T19:56:16.324Z,3.10
2018-06-17T19:58:26.847Z,2.27
2018-06-17T20:00:34.057Z,2.10
2018-06-17T20:02:39.135Z,2.30
2018-06-17T20:04:44.108Z,2.67
2018-06-17T20:06:49.456Z,2.47
2018-06-17T20:08:54.846Z,2.20
2018-06-17T20:11:00.201Z,2.30
2018-06-17T20:13:05.324Z,2.00
2018-06-17T20:15:10.793Z,2.40
2018-06-17T20:17:16.330Z,2.30
2018-06-17T20:19:21.665Z,2.02
2018-06-17T20:21:27.019Z,2.90
2018-06-17T20:23:32.475Z,2.20
2018-06-17T20:25:37.902Z,2.50
2018-06-17T20:27:43.368Z,2.80
2018-06-17T20:29:48.771Z,3.00
2018-06-17T20:31:59.473Z,2.47
2018-06-17T20:34:10.157Z,2.90
2018-06-17T20:36:20.553Z,2.12
2018-06-17T20:38:30.976Z,2.80
2018-06-17T20:40:41.353Z,2.40
2018-06-17T20:42:51.826Z,2.67
2018-06-17T20:44:57.212Z,2.13
2018-06-17T20:47:02.678Z,2.30
2018-06-17T20:49:08.813Z,2.53
2018-06-17T20:51:14.245Z,2.35
2018-06-17T20:53:19.659Z,2.37
2018-06-17T20:55:25.047Z,2.37
2018-06-17T20:57:30.541Z,2.80
2018-06-17T20:59:35.906Z,2.60
2018-06-17T21:01:41.347Z,2.37
2018-06-17T21:03:46.885Z,2.37
2018-06-17T21:05:52.346Z,2.37
2018-06-17T21:07:57.768Z,2.57
2018-06-17T21:10:03.230Z,2.53
2018-06-17T21:12:08.915Z,2.93
2018-06-17T21:14:14.463Z,2.33
2018-06-17T21:16:20.477Z,3.00
2018-06-17T21:18:31.042Z,2.73
2018-06-17T21:20:41.696Z,2.10
2018-06-17T21:22:52.376Z,2.60
2018-06-17T21:25:02.825Z,2.60
2018-06-17T21:27:14.081Z,2.47
2018-06-17T21:29:19.423Z,3.27
2018-06-17T21:31:25.709Z,2.52
2018-06-17T21:33:31.072Z,2.53
2018-06-17T21:35:36.393Z,2.50
2018-06-17T21:37:41.824Z,2.20
2018-06-17T21:39:47.481Z,1.87
2018-06-17T21:41:52.786Z,2.33
2018-06-17T21:43:58.160Z,2.40
2018-06-17T21:46:03.526Z,2.10
2018-06-17T21:48:09.533Z,2.53
2018-06-17T21:50:14.924Z,2.52
2018-06-17T21:52:20.319Z,2.10
2018-06-17T21:54:25.788Z,2.10
2018-06-17T21:56:31.133Z,2.17
2018-06-17T21:58:41.423Z,2.30
2018-06-17T22:00:46.804Z,1.77
2018-06-17T22:02:52.191Z,2.73
2018-06-17T22:04:57.564Z,2.13
2018-06-17T22:07:02.973Z,2.60
2018-06-17T22:09:14.695Z,2.40
2018-06-17T22:11:25.094Z,2.02
2018-06-17T22:13:35.545Z,2.13
2018-06-17T22:15:46.185Z,2.67
2018-06-17T22:17:52.240Z,2.37
2018-06-17T22:19:57.581Z,2.23
2018-06-17T22:22:02.897Z,2.10
2018-06-17T22:24:09.059Z,2.67
2018-06-17T22:26:14.420Z,2.40
2018-06-17T22:28:19.718Z,2.30
2018-06-17T22:30:25.058Z,2.50
2018-06-17T22:32:30.374Z,2.73
2018-06-17T22:34:35.841Z,2.47
2018-06-17T22:36:41.158Z,2.27
2018-06-17T22:38:46.473Z,2.40
2018-06-17T22:40:51.748Z,2.80
2018-06-17T22:42:57.127Z,2.27
2018-06-17T22:45:02.449Z,2.70
2018-06-17T22:47:09.019Z,2.03
2018-06-17T22:49:14.067Z,2.25
2018-06-17T22:51:19.427Z,2.33
2018-06-17T22:53:41.654Z,2.35
2018-06-17T22:55:46.985Z,2.70
2018-06-17T22:57:57.525Z,2.70
2018-06-17T23:00:07.873Z,2.40
2018-06-17T23:02:18.215Z,2.40
2018-06-17T23:04:28.819Z,2.45
2018-06-17T23:06:39.127Z,2.30
2018-06-17T23:08:49.690Z,2.60
2018-06-17T23:10:55.035Z,2.13
2018-06-17T23:13:00.427Z,2.30
2018-06-17T23:15:05.857Z,2.10
2018-06-17T23:17:11.161Z,2.53
2018-06-17T23:19:16.620Z,2.40
2018-06-17T23:21:21.900Z,1.85
2018-06-17T23:23:27.196Z,2.20
2018-06-17T23:25:32.578Z,2.67
2018-06-17T23:27:37.881Z,2.47
2018-06-17T23:29:43.176Z,2.30
2018-06-17T23:31:48.608Z,2.27
2018-06-17T23:33:53.908Z,2.20
2018-06-17T23:35:59.221Z,2.70
2018-06-17T23:38:04.517Z,2.30
2018-06-17T23:40:09.948Z,2.07
2018-06-17T23:42:15.299Z,2.47
2018-06-17T23:44:20.270Z,2.10
2018-06-17T23:46:30.765Z,2.37
2018-06-17T23:48:41.264Z,2.10
2018-06-17T23:50:51.716Z,2.47
2018-06-17T23:53:02.205Z,2.17
2018-06-17T23:55:12.624Z,2.30
2018-06-17T23:57:16.582Z,2.35
2018-06-17T23:59:21.643Z,2.03
